Time;durP1;ratioP1;P1;durP2;ratioP2;P2;SDS_P1;SDS_P2;PMS_P1;PMS_P2;Temp;Humidity;BMP_temperature;BMP_pressure;BME280_temperature;BME280_humidity;BME280_pressure;Samples;Min_cycle;Max_cycle;Signal;HPM_P1;HPM_P2
2022/11/16 00:00:33;;;;;;;11.73;9.27;;;;;;;10.83;100.00;99773.91;5047226;28;20025;-46
2022/11/16 00:03:03;;;;;;;12.50;9.50;;;;;;;10.81;100.00;99765.22;5051953;28;20068;-46
2022/11/16 00:05:29;;;;;;;13.30;9.20;;;;;;;10.80;100.00;99760.91;5052933;28;20029;-47
2022/11/16 00:07:55;;;;;;;10.63;9.30;;;;;;;10.82;100.00;99761.59;5047216;28;20421;-46
2022/11/16 00:10:20;;;;;;;10.52;8.98;;;;;;;10.82;100.00;99767.75;5051834;28;20021;-47
2022/11/16 00:12:45;;;;;;;10.13;9.10;;;;;;;10.83;100.00;99769.44;5052615;28;20037;-46
2022/11/16 00:15:11;;;;;;;10.60;8.98;;;;;;;10.83;100.00;99769.44;5044584;28;20383;-46
2022/11/16 00:17:36;;;;;;;11.60;9.48;;;;;;;10.84;100.00;99776.44;5053622;28;20486;-46
2022/11/16 00:20:01;;;;;;;12.25;9.70;;;;;;;10.84;100.00;99767.59;5050045;28;20030;-46
2022/11/16 00:22:27;;;;;;;10.77;9.55;;;;;;;10.82;100.00;99765.09;5052396;28;20109;-46
2022/11/16 00:24:52;;;;;;;10.82;9.55;;;;;;;10.83;100.00;99768.59;5052361;28;20430;-46
2022/11/16 00:27:17;;;;;;;12.60;10.27;;;;;;;10.82;100.00;99773.06;5045219;28;20037;-47
2022/11/16 00:29:44;;;;;;;10.45;9.38;;;;;;;10.82;100.00;99774.88;5052518;28;20021;-46
2022/11/16 00:32:09;;;;;;;11.23;10.13;;;;;;;10.82;100.00;99745.66;5052073;28;20029;-46
2022/11/16 00:34:34;;;;;;;10.85;9.57;;;;;;;10.82;100.00;99761.59;5049843;28;20081;-46
2022/11/16 00:37:00;;;;;;;11.73;9.63;;;;;;;10.81;100.00;99750.16;5052336;28;20027;-49
2022/11/16 00:39:25;;;;;;;11.20;10.10;;;;;;;10.81;100.00;99736.88;5052425;28;20063;-46
2022/11/16 00:41:50;;;;;;;11.52;9.70;;;;;;;10.82;100.00;99732.38;5049709;28;20299;-48
2022/11/16 00:44:16;;;;;;;10.63;9.05;;;;;;;10.82;100.00;99738.53;5052228;28;20028;-48
2022/11/16 00:46:42;;;;;;;12.90;9.35;;;;;;;10.82;100.00;99743.00;5049477;28;20544;-46
2022/11/16 00:49:08;;;;;;;11.00;9.63;;;;;;;10.82;100.00;99759.78;5038720;28;20021;-47
2022/11/16 00:51:34;;;;;;;11.43;9.30;;;;;;;10.82;100.00;99758.94;5047588;28;20486;-49
2022/11/16 00:54:00;;;;;;;10.30;9.30;;;;;;;10.81;100.00;99758.13;5052117;28;20029;-47
2022/11/16 00:56:26;;;;;;;10.13;9.05;;;;;;;10.82;100.00;99748.31;5042179;28;20044;-47
2022/11/16 00:58:51;;;;;;;11.20;9.60;;;;;;;10.81;100.00;99759.91;5051935;28;20025;-46
2022/11/16 01:01:17;;;;;;;11.37;9.40;;;;;;;10.79;100.00;99751.25;5038994;28;20029;-47
2022/11/16 01:03:42;;;;;;;10.93;9.30;;;;;;;10.80;100.00;99742.31;5051659;28;20374;-47
2022/11/16 01:06:10;;;;;;;9.90;8.82;;;;;;;10.78;100.00;99746.94;5050346;28;20475;-47
2022/11/16 01:08:37;;;;;;;11.63;9.50;;;;;;;10.79;100.00;99749.47;5046917;28;20025;-46
2022/11/16 01:13:48;;;;;;;11.10;9.27;;;;;;;10.79;100.00;99733.53;5033782;28;20458;-47
2022/11/16 01:16:19;;;;;;;21.20;10.02;;;;;;;10.78;100.00;99734.50;5039150;28;20033;-47
2022/11/16 01:18:49;;;;;;;10.27;8.75;;;;;;;10.78;100.00;99739.00;5050790;28;20025;-46
2022/11/16 01:21:15;;;;;;;9.90;8.85;;;;;;;10.79;100.00;99733.53;5041184;28;20041;-47
2022/11/16 01:23:40;;;;;;;9.40;8.43;;;;;;;10.79;100.00;99727.38;5046904;28;20164;-46
2022/11/16 01:26:05;;;;;;;9.73;8.30;;;;;;;10.81;100.00;99725.38;5051900;28;20115;-46
2022/11/16 01:28:31;;;;;;;11.43;8.63;;;;;;;10.81;100.00;99728.91;5040964;28;20048;-47
2022/11/16 01:30:57;;;;;;;11.13;9.20;;;;;;;10.82;100.00;99724.41;5050345;28;20025;-46
2022/11/16 01:33:22;;;;;;;11.63;8.73;;;;;;;10.81;100.00;99723.59;5049339;28;20413;-46
2022/11/16 01:35:48;;;;;;;10.85;8.85;;;;;;;10.83;100.00;99726.09;5052501;28;20033;-47
2022/11/16 01:38:13;;;;;;;10.38;8.15;;;;;;;10.83;100.00;99718.97;5051639;28;20483;-47
2022/11/16 01:40:39;;;;;;;10.55;8.20;;;;;;;10.85;100.00;99713.50;5039064;28;20491;-47
2022/11/16 01:43:15;;;;;;;9.13;8.15;;;;;;;10.84;100.00;99712.69;5051677;28;20159;-46
2022/11/16 01:45:41;;;;;;;9.55;7.78;;;;;;;10.85;100.00;99713.50;5037936;28;20429;-46
2022/11/16 01:48:07;;;;;;;10.50;8.95;;;;;;;10.86;100.00;99715.19;5050912;28;20593;-46
2022/11/16 01:50:33;;;;;;;10.57;8.70;;;;;;;10.86;100.00;99718.66;5051809;28;20060;-47
2022/11/16 01:53:02;;;;;;;11.70;8.80;;;;;;;10.86;100.00;99713.34;5051095;28;20103;-46
2022/11/16 01:55:31;;;;;;;11.18;8.57;;;;;;;10.87;100.00;99714.19;5050532;28;20033;-47
2022/11/16 01:57:56;;;;;;;9.50;8.55;;;;;;;10.87;100.00;99733.59;5050659;28;20067;-47
2022/11/16 02:00:22;;;;;;;10.40;8.57;;;;;;;10.87;100.00;99725.63;5043897;28;20033;-47
2022/11/16 02:02:47;;;;;;;10.38;9.35;;;;;;;10.88;100.00;99714.03;5049634;28;20017;-46
2022/11/16 02:05:19;;;;;;;10.55;9.27;;;;;;;10.90;100.00;99716.56;5051413;28;20482;-46
2022/11/16 02:11:13;;;;;;;11.00;9.32;;;;;;;10.92;100.00;99710.13;5051412;28;20567;-47
2022/11/16 02:13:41;;;;;;;10.85;9.00;;;;;;;10.89;100.00;99710.41;5045740;28;20047;-46
2022/11/16 02:16:35;;;;;;;10.50;9.32;;;;;;;10.91;100.00;99711.09;5052198;28;20032;-47
2022/11/16 02:19:04;;;;;;;12.32;9.40;;;;;;;10.91;100.00;99710.25;5043131;28;20034;-47
2022/11/16 02:21:49;;;;;;;10.27;9.07;;;;;;;10.90;100.00;99704.09;5044535;28;20025;-47
2022/11/16 02:24:17;;;;;;;12.20;9.50;;;;;;;10.89;100.00;99706.91;5040864;28;20074;-47
2022/11/16 02:26:45;;;;;;;10.32;9.07;;;;;;;10.90;100.00;99704.09;5048600;28;20037;-47
2022/11/16 02:29:40;;;;;;;10.10;8.85;;;;;;;10.90;100.00;99708.59;5054771;28;20025;-47
2022/11/16 02:32:15;;;;;;;11.15;8.55;;;;;;;10.90;100.00;99712.06;5051764;28;20478;-47
2022/11/16 02:35:07;;;;;;;11.25;9.15;;;;;;;10.93;100.00;99716.25;5054540;28;20079;-46
2022/11/16 02:37:40;;;;;;;9.35;8.10;;;;;;;10.92;100.00;99709.25;5049258;28;20452;-46
2022/11/16 02:40:10;;;;;;;8.60;7.47;;;;;;;10.90;100.00;99704.09;5055364;28;20029;-46
2022/11/16 02:42:53;;;;;;;7.82;7.13;;;;;;;10.90;100.00;99717.38;5054438;28;20090;-47
2022/11/16 02:45:24;;;;;;;8.73;6.53;;;;;;;10.88;100.00;99708.72;5050685;28;20111;-46
2022/11/16 02:47:52;;;;;;;8.52;6.57;;;;;;;10.89;100.00;99715.72;5051528;28;20047;-46
2022/11/16 02:50:20;;;;;;;8.25;6.47;;;;;;;10.89;100.00;99713.06;5054348;28;20406;-47
2022/11/16 02:52:45;;;;;;;8.85;6.55;;;;;;;10.89;100.00;99722.84;5051633;28;20498;-46
2022/11/16 02:55:12;;;;;;;6.85;5.82;;;;;;;10.89;100.00;99722.84;5054499;28;20025;-46
2022/11/16 02:57:57;;;;;;;10.02;6.00;;;;;;;10.89;100.00;99714.88;5047381;28;20036;-47
2022/11/16 03:00:29;;;;;;;7.25;5.90;;;;;;;10.86;100.00;99718.66;5054313;28;20037;-46
2022/11/16 03:02:59;;;;;;;6.00;5.35;;;;;;;10.86;100.00;99715.19;5045401;28;20124;-47
2022/11/16 03:05:33;;;;;;;6.82;5.25;;;;;;;10.85;100.00;99710.84;5054222;28;20032;-46
2022/11/16 03:08:13;;;;;;;5.95;5.07;;;;;;;10.84;100.00;99719.78;5052412;28;20479;-46
2022/11/16 03:13:32;;;;;;;5.75;5.15;;;;;;;10.81;100.00;99722.72;5047709;28;20133;-47
2022/11/16 03:16:02;;;;;;;5.93;4.72;;;;;;;10.78;100.00;99725.72;5047616;28;20548;-47
2022/11/16 03:18:30;;;;;;;4.50;4.10;;;;;;;10.75;100.00;99724.16;5053342;28;20520;-48
2022/11/16 03:21:08;;;;;;;4.37;4.03;;;;;;;10.75;100.00;99729.47;5042936;28;20035;-48
2022/11/16 03:23:33;;;;;;;6.60;3.95;;;;;;;10.72;100.00;99727.97;5042359;28;20037;-48
2022/11/16 03:26:04;;;;;;;4.20;3.78;;;;;;;10.70;100.00;99729.09;5053949;28;20075;-47
2022/11/16 03:28:40;;;;;;;4.25;3.58;;;;;;;10.68;100.00;99736.38;5053661;28;20017;-47
2022/11/16 03:31:19;;;;;;;5.43;3.25;;;;;;;10.64;100.00;99732.31;5049332;28;20066;-47
2022/11/16 03:33:51;;;;;;;4.10;2.90;;;;;;;10.60;100.00;99733.59;5052507;28;20025;-47
2022/11/16 03:36:24;;;;;;;5.75;2.95;;;;;;;10.58;100.00;99743.53;5048577;28;20056;-47
2022/11/16 03:38:51;;;;;;;3.05;2.35;;;;;;;10.53;100.00;99736.81;5052992;28;20025;-51
2022/11/16 03:41:19;;;;;;;5.57;2.30;;;;;;;10.51;100.00;99736.13;5046936;28;20056;-47
2022/11/16 03:43:47;;;;;;;2.58;2.20;;;;;;;10.46;100.00;99738.38;5053445;28;20025;-47
2022/11/16 03:46:15;;;;;;;2.58;2.30;;;;;;;10.42;100.00;99744.94;5053333;28;20421;-48
2022/11/16 03:48:41;;;;;;;2.55;2.00;;;;;;;10.39;100.00;99744.41;5052360;28;20029;-48
2022/11/16 03:51:09;;;;;;;4.40;2.13;;;;;;;10.35;100.00;99749.16;5053190;28;20314;-48
2022/11/16 03:53:34;;;;;;;3.60;2.53;;;;;;;10.33;100.00;99757.28;5044935;28;20451;-47
2022/11/16 03:56:00;;;;;;;2.88;2.28;;;;;;;10.33;100.00;99769.72;5053201;28;20115;-47
2022/11/16 03:58:25;;;;;;;5.13;2.38;;;;;;;10.30;100.00;99769.97;5052071;28;20025;-47
2022/11/16 04:00:50;;;;;;;4.72;2.88;;;;;;;10.27;100.00;99773.72;5052772;28;20021;-46
2022/11/16 04:03:16;;;;;;;4.57;2.67;;;;;;;10.23;100.00;99769.69;5051013;28;20033;-47
2022/11/16 04:25:16;;;;;;;3.53;2.60;;;;;;;10.08;100.00;99781.72;5050384;28;20052;-47
2022/11/16 04:37:47;;;;;;;3.97;3.08;;;;;;;10.05;100.00;99782.81;5052732;28;20055;-47
2022/11/16 04:38:39;;;;;;;5.13;2.55;;;;;;;9.94;100.00;99775.88;5051943;28;20035;-47
2022/11/16 04:41:04;;;;;;;6.43;3.03;;;;;;;9.90;100.00;99778.94;5052189;28;20029;-46
2022/11/16 04:43:29;;;;;;;5.70;2.80;;;;;;;9.89;100.00;99777.25;5043854;28;20451;-47
2022/11/16 04:48:38;;;;;;;9.27;3.03;;;;;;;9.82;100.00;99788.44;5046542;28;20078;-47
2022/11/16 04:51:04;;;;;;;7.38;3.20;;;;;;;9.80;100.00;99797.47;5052053;28;20108;-47
2022/11/16 04:53:29;;;;;;;8.48;3.28;;;;;;;9.77;100.00;99795.09;5051758;28;20025;-46
2022/11/16 04:55:54;;;;;;;8.32;3.70;;;;;;;9.73;100.00;99802.50;5049765;28;20112;-47
2022/11/16 04:58:19;;;;;;;9.52;3.42;;;;;;;9.71;100.00;99804.47;5051931;28;20037;-48
2022/11/16 05:00:45;;;;;;;6.05;3.45;;;;;;;9.69;100.00;99809.06;5044225;28;20021;-47
2022/11/16 05:03:10;;;;;;;7.45;3.33;;;;;;;9.67;100.00;99805.69;5051777;28;20032;-47
2022/11/16 05:05:35;;;;;;;7.97;3.40;;;;;;;9.65;100.00;99814.78;5051012;28;20052;-47
2022/11/16 05:08:00;;;;;;;5.10;3.00;;;;;;;9.62;100.00;99811.41;5045532;28;20028;-46
2022/11/16 05:10:26;;;;;;;6.70;3.53;;;;;;;9.61;100.00;99808.91;5050094;28;20029;-46
2022/11/16 05:12:51;;;;;;;5.82;3.13;;;;;;;9.58;100.00;99810.00;5051179;28;20059;-48
2022/11/16 05:15:18;;;;;;;5.55;3.13;;;;;;;9.58;100.00;99811.84;5041749;28;20037;-47
2022/11/16 05:17:43;;;;;;;6.70;3.22;;;;;;;9.55;100.00;99812.09;5051823;28;20033;-47
2022/11/16 05:22:54;;;;;;;5.18;3.25;;;;;;;9.49;100.00;99810.81;5043328;28;20036;-47
2022/11/16 05:25:20;;;;;;;8.05;3.22;;;;;;;9.47;100.00;99812.78;5049118;28;20036;-46
2022/11/16 05:27:45;;;;;;;5.20;2.97;;;;;;;9.44;100.00;99805.94;5051964;28;20033;-47
2022/11/16 05:30:11;;;;;;;5.40;3.17;;;;;;;9.41;100.00;99806.22;5047319;28;20028;-47
2022/11/16 05:32:36;;;;;;;8.55;3.42;;;;;;;9.39;100.00;99797.56;5051734;28;20066;-48
2022/11/16 05:35:01;;;;;;;12.07;3.50;;;;;;;9.37;100.00;99804.78;5051513;28;20029;-47
2022/11/16 05:37:28;;;;;;;6.38;3.50;;;;;;;9.36;100.00;99803.13;5051375;28;20028;-48
2022/11/16 05:39:53;;;;;;;9.00;3.72;;;;;;;9.32;100.00;99801.72;5044096;28;20058;-48
2022/11/16 05:42:19;;;;;;;5.88;3.00;;;;;;;9.29;100.00;99795.84;5051855;28;20421;-47
2022/11/16 05:44:44;;;;;;;6.80;4.05;;;;;;;9.28;100.00;99791.53;5051372;28;20025;-47
2022/11/16 05:47:09;;;;;;;7.67;3.30;;;;;;;9.25;100.00;99803.22;5051139;28;20049;-47
2022/11/16 05:49:35;;;;;;;8.25;3.90;;;;;;;9.21;100.00;99804.50;5045642;28;20402;-49
2022/11/16 05:52:00;;;;;;;7.03;3.40;;;;;;;9.16;100.00;99812.84;5051569;28;20051;-48
2022/11/16 05:54:25;;;;;;;5.82;3.50;;;;;;;9.11;100.00;99819.50;5050247;28;20033;-47
2022/11/16 05:56:52;;;;;;;7.25;3.70;;;;;;;9.10;100.00;99823.13;5051091;28;20033;-47
2022/11/16 05:59:19;;;;;;;9.93;4.20;;;;;;;9.02;100.00;99821.97;5050942;28;20044;-47
2022/11/16 06:01:45;;;;;;;7.95;4.28;;;;;;;9.01;100.00;99824.75;5053912;28;20021;-48
2022/11/16 06:04:10;;;;;;;6.00;3.63;;;;;;;8.97;100.00;99829.47;5054980;28;20375;-48
2022/11/16 06:06:36;;;;;;;6.03;3.97;;;;;;;8.94;100.00;99828.91;5050519;28;20127;-47
2022/11/16 06:09:02;;;;;;;6.00;3.90;;;;;;;8.88;100.00;99823.16;5051983;28;20104;-48
2022/11/16 06:11:27;;;;;;;8.23;4.35;;;;;;;8.85;100.00;99822.59;5055539;28;20116;-47
2022/11/16 06:13:52;;;;;;;7.22;4.10;;;;;;;8.82;100.00;99830.78;5050311;28;20040;-47
2022/11/16 06:16:18;;;;;;;10.55;4.72;;;;;;;8.77;100.00;99833.81;5055032;28;20364;-48
2022/11/16 06:18:45;;;;;;;12.85;4.43;;;;;;;8.72;100.00;99833.38;5052189;28;20029;-48
2022/11/16 06:21:12;;;;;;;6.88;4.13;;;;;;;8.69;100.00;99837.16;5040507;28;20037;-46
2022/11/16 06:23:37;;;;;;;8.65;4.25;;;;;;;8.66;100.00;99836.53;5052327;28;20032;-47
2022/11/16 06:26:04;;;;;;;10.23;4.47;;;;;;;8.61;100.00;99846.69;5055220;28;20380;-49
2022/11/16 06:28:30;;;;;;;8.43;4.82;;;;;;;8.56;100.00;99849.75;5054690;28;20035;-46
2022/11/16 06:30:55;;;;;;;7.32;4.43;;;;;;;8.53;100.00;99860.56;5053414;28;20021;-47
2022/11/16 06:33:21;;;;;;;10.70;4.10;;;;;;;8.47;100.00;99867.19;5054412;28;20508;-47
2022/11/16 06:35:47;;;;;;;8.02;4.18;;;;;;;8.45;100.00;99860.38;5051454;28;20494;-47
2022/11/16 06:38:17;;;;;;;12.88;4.68;;;;;;;8.40;100.00;99871.31;5054417;28;20486;-47
2022/11/16 06:40:49;;;;;;;8.50;4.63;;;;;;;8.36;100.00;99867.25;5054612;28;20040;-46
2022/11/16 06:43:15;;;;;;;7.53;4.18;;;;;;;8.33;100.00;99854.28;5052179;28;20132;-47
2022/11/16 06:45:40;;;;;;;9.43;4.30;;;;;;;8.28;100.00;99864.41;5054261;28;20104;-48
2022/11/16 06:48:05;;;;;;;8.07;4.65;;;;;;;8.26;100.00;99867.16;5054589;28;20402;-46
2022/11/16 06:50:30;;;;;;;10.38;4.30;;;;;;;8.23;100.00;99872.72;5052980;28;20462;-46
2022/11/16 06:52:59;;;;;;;11.23;4.05;;;;;;;8.19;100.00;99871.25;5054743;28;20767;-46
2022/11/16 06:55:24;;;;;;;8.73;4.30;;;;;;;8.17;100.00;99878.50;5055251;28;20017;-47
2022/11/16 06:57:50;;;;;;;12.30;4.50;;;;;;;8.13;100.00;99872.63;5051367;28;20033;-47
2022/11/16 07:00:16;;;;;;;12.90;4.47;;;;;;;8.12;100.00;99880.69;5054187;28;20475;-46
2022/11/16 07:02:41;;;;;;;14.05;4.20;;;;;;;8.09;100.00;99878.28;5051818;28;20068;-48
2022/11/16 07:05:07;;;;;;;12.73;5.00;;;;;;;8.06;100.00;99878.53;5057146;28;20041;-47
2022/11/16 07:07:32;;;;;;;13.80;4.53;;;;;;;8.05;100.00;99880.34;5059706;28;20037;-48
2022/11/16 07:09:58;;;;;;;11.10;4.60;;;;;;;8.02;100.00;99891.16;5056302;28;20040;-50
2022/11/16 07:12:23;;;;;;;9.60;4.18;;;;;;;8.00;100.00;99879.03;5047170;28;20078;-47
2022/11/16 07:14:49;;;;;;;12.93;4.45;;;;;;;8.00;100.00;99892.28;5048948;28;20061;-47
2022/11/16 07:17:14;;;;;;;10.05;3.83;;;;;;;7.96;100.00;99889.03;5043441;28;20180;-47
2022/11/16 07:19:40;;;;;;;13.82;4.60;;;;;;;7.95;100.00;99895.28;5049852;28;20063;-46
2022/11/16 07:22:05;;;;;;;8.70;3.78;;;;;;;7.94;100.00;99894.44;5045446;28;20025;-46
2022/11/16 07:24:31;;;;;;;9.57;3.90;;;;;;;7.91;100.00;99901.75;5034168;28;20029;-46
2022/11/16 07:26:56;;;;;;;10.05;4.22;;;;;;;7.90;100.00;99905.38;5034572;28;20033;-50
2022/11/16 07:29:22;;;;;;;10.48;4.90;;;;;;;7.90;100.00;99902.75;5032608;28;20030;-47
2022/11/16 07:31:47;;;;;;;14.25;6.38;;;;;;;7.89;100.00;99911.63;5036617;28;20029;-46
2022/11/16 07:34:12;;;;;;;15.35;6.00;;;;;;;7.87;100.00;99909.09;5034409;28;20071;-47
2022/11/16 07:36:37;;;;;;;14.48;6.72;;;;;;;7.87;100.00;99908.28;5037773;28;20040;-47
2022/11/16 07:39:03;;;;;;;16.75;7.07;;;;;;;7.86;100.00;99917.16;5038524;28;20024;-46
2022/11/16 07:41:28;;;;;;;17.13;8.32;;;;;;;7.87;100.00;99909.09;5037016;28;21426;-46
2022/11/16 07:43:53;;;;;;;19.63;8.50;;;;;;;7.87;100.00;99917.03;5036328;28;20043;-48
2022/11/16 07:46:20;;;;;;;17.85;8.77;;;;;;;7.87;100.00;99922.31;5039240;28;20473;-46
2022/11/16 07:48:46;;;;;;;19.40;8.55;;;;;;;7.87;100.00;99924.97;5038228;28;20036;-46
2022/11/16 07:51:14;;;;;;;20.52;8.52;;;;;;;7.87;100.00;99924.97;5038265;28;20402;-49
2022/11/16 07:53:40;;;;;;;20.05;9.20;;;;;;;7.87;100.00;99927.63;5033967;28;20025;-47
2022/11/16 07:56:06;;;;;;;19.13;8.57;;;;;;;7.88;100.00;99925.84;5035198;28;20037;-45
2022/11/16 07:58:32;;;;;;;22.80;7.97;;;;;;;7.89;100.00;99931.00;5031872;28;20104;-46
2022/11/16 08:01:08;;;;;;;17.00;7.85;;;;;;;7.92;100.00;99937.81;5034578;28;20041;-46
2022/11/16 08:03:34;;;;;;;13.05;7.47;;;;;;;7.92;100.00;99945.75;5032365;28;20025;-47
2022/11/16 08:06:05;;;;;;;16.98;7.80;;;;;;;7.93;100.00;99942.16;5032958;28;20057;-47
2022/11/16 08:08:31;;;;;;;20.10;6.97;;;;;;;7.94;100.00;99939.41;5034659;28;20523;-46
2022/11/16 08:11:04;;;;;;;14.77;6.97;;;;;;;7.96;100.00;99940.09;5037195;28;20116;-47
2022/11/16 08:13:33;;;;;;;16.80;6.13;;;;;;;7.99;100.00;99938.19;5036816;28;20053;-46
2022/11/16 08:16:19;;;;;;;16.43;5.80;;;;;;;8.01;100.00;99942.38;5037583;28;20073;-46
2022/11/16 08:18:45;;;;;;;12.55;5.05;;;;;;;8.03;100.00;99944.91;5040017;28;20025;-47
2022/11/16 08:21:13;;;;;;;20.80;5.15;;;;;;;8.04;100.00;99933.34;5035848;28;20045;-47
2022/11/16 08:23:40;;;;;;;17.50;4.88;;;;;;;8.07;100.00;99941.03;5038537;28;20033;-46
2022/11/16 08:26:08;;;;;;;16.65;5.07;;;;;;;8.09;100.00;99933.81;5046500;28;20033;-46
2022/11/16 08:28:34;;;;;;;10.95;4.32;;;;;;;8.10;100.00;99944.28;5048169;28;20099;-46
2022/11/16 08:31:06;;;;;;;15.98;5.03;;;;;;;8.12;100.00;99941.50;5050436;28;20060;-46
2022/11/16 08:33:31;;;;;;;14.57;4.78;;;;;;;8.14;100.00;99937.78;5039184;28;20032;-47
2022/11/16 08:36:01;;;;;;;15.13;4.45;;;;;;;8.18;100.00;99934.88;5032312;28;20018;-46
2022/11/16 08:38:26;;;;;;;13.98;4.18;;;;;;;8.20;100.00;99935.63;5045474;28;20037;-47
2022/11/16 08:40:54;;;;;;;15.40;4.57;;;;;;;8.21;100.00;99931.97;5047153;28;20071;-46
2022/11/16 08:43:19;;;;;;;15.13;4.97;;;;;;;8.26;100.00;99935.09;5045342;28;20040;-46
2022/11/16 08:45:48;;;;;;;12.98;4.40;;;;;;;8.29;100.00;99938.34;5050158;28;20034;-47
2022/11/16 08:48:14;;;;;;;14.10;4.20;;;;;;;8.33;100.00;99939.78;5051720;28;20493;-45
2022/11/16 08:50:40;;;;;;;10.32;3.80;;;;;;;8.38;100.00;99941.22;5052115;28;20423;-45
2022/11/16 08:53:05;;;;;;;17.48;4.32;;;;;;;8.42;100.00;99951.41;5051977;28;20063;-46
2022/11/16 08:55:31;;;;;;;16.08;3.97;;;;;;;8.47;100.00;99940.47;5050028;28;20048;-46
2022/11/16 08:57:57;;;;;;;13.70;3.65;;;;;;;8.55;100.00;99945.16;5051818;28;20025;-46
2022/11/16 09:00:22;;;;;;;8.10;2.95;;;;;;;8.62;100.00;99948.97;5052105;28;20493;-46
2022/11/16 09:02:47;;;;;;;17.67;4.32;;;;;;;8.73;100.00;99948.91;5051772;28;20028;-46
2022/11/16 09:05:12;;;;;;;12.20;3.53;;;;;;;8.80;100.00;99952.72;5044017;28;20033;-45
2022/11/16 09:07:38;;;;;;;17.58;3.85;;;;;;;8.85;100.00;99947.88;5040012;28;20034;-49
2022/11/16 09:10:05;;;;;;;18.55;3.80;;;;;;;8.93;100.00;99955.19;5045395;28;20028;-47
2022/11/16 09:12:32;;;;;;;11.02;3.33;;;;;;;9.00;100.00;99955.50;5049400;28;20092;-46
2022/11/16 09:14:57;;;;;;;9.70;3.03;;;;;;;9.06;100.00;99955.81;5044250;28;20102;-46
2022/11/16 09:17:22;;;;;;;16.13;3.58;;;;;;;9.17;100.00;99960.19;5049942;28;20017;-47
2022/11/16 09:19:48;;;;;;;15.13;3.47;;;;;;;9.26;100.00;99958.59;5048308;28;20033;-46
2022/11/16 09:22:13;;;;;;;13.60;3.15;;;;;;;9.34;100.00;99953.50;5046830;28;20437;-48
2022/11/16 09:24:38;;;;;;;13.30;3.80;;;;;;;9.45;100.00;99952.56;5050253;28;20441;-46
2022/11/16 09:27:05;;;;;;;11.05;3.35;;;;;;;9.54;100.00;99959.72;5049921;28;20029;-45
2022/11/16 09:29:31;;;;;;;16.52;3.17;;;;;;;9.60;100.00;99956.53;5048428;28;20028;-46
2022/11/16 09:31:57;;;;;;;13.98;3.30;;;;;;;9.69;100.00;99957.56;5048078;28;20471;-46
2022/11/16 09:34:23;;;;;;;10.23;3.20;;;;;;;9.79;100.00;99954.91;5048966;28;20102;-46
2022/11/16 09:36:48;;;;;;;9.95;3.03;;;;;;;9.85;100.00;99957.03;5051674;28;20079;-45
2022/11/16 09:39:13;;;;;;;12.75;2.97;;;;;;;9.95;100.00;99962.38;5046328;28;20069;-45
2022/11/16 09:41:41;;;;;;;11.48;3.15;;;;;;;9.94;100.00;99956.25;5034501;28;20036;-46
2022/11/16 09:44:28;;;;;;;13.63;3.30;;;;;;;10.00;100.00;99955.69;5040683;28;20033;-49
2022/11/16 09:46:56;;;;;;;12.60;2.92;;;;;;;10.08;100.00;99960.31;5041469;28;20056;-49
2022/11/16 09:49:27;;;;;;;13.98;2.78;;;;;;;10.15;100.00;99961.44;5035308;28;20028;-46
2022/11/16 09:51:58;;;;;;;8.23;2.72;;;;;;;10.24;100.00;99956.28;5033476;28;20534;-46
2022/11/16 09:54:28;;;;;;;8.65;2.53;;;;;;;10.31;100.00;99962.75;5035663;28;20495;-46
2022/11/16 09:56:58;;;;;;;13.52;3.40;;;;;;;10.48;100.00;99961.25;5034428;28;20134;-48
2022/11/16 09:59:28;;;;;;;11.90;2.45;;;;;;;10.54;98.95;99968.63;5038417;28;20017;-49
2022/11/16 10:02:29;;;;;;;12.00;2.72;;;;;;;10.65;99.79;99962.38;5051597;28;20112;-46
2022/11/16 10:05:17;;;;;;;14.43;2.85;;;;;;;10.70;98.03;99960.13;5045367;28;20582;-45
2022/11/16 10:07:45;;;;;;;11.18;2.25;;;;;;;10.79;96.97;99961.09;5040145;28;20044;-46
2022/11/16 10:10:27;;;;;;;11.53;2.40;;;;;;;10.79;95.49;99961.97;5048453;28;20021;-45
2022/11/16 10:13:13;;;;;;;11.95;2.83;;;;;;;10.84;95.49;99970.34;5051771;28;20102;-46
2022/11/16 10:15:56;;;;;;;8.07;2.40;;;;;;;10.89;96.62;99967.25;5054655;28;20060;-46
2022/11/16 10:18:45;;;;;;;10.73;2.55;;;;;;;10.95;95.17;99958.72;5053840;28;20717;-46
2022/11/16 10:21:48;;;;;;;11.55;2.58;;;;;;;11.01;94.82;99963.47;5045965;28;20402;-46
2022/11/16 10:24:41;;;;;;;9.00;2.42;;;;;;;11.08;94.46;99953.09;5051199;28;20055;-47
2022/11/16 10:27:46;;;;;;;10.35;2.20;;;;;;;11.14;93.67;99955.19;5052857;28;20057;-48
2022/11/16 10:30:15;;;;;;;6.38;2.30;;;;;;;11.24;92.72;99956.00;5054439;28;20028;-46
2022/11/16 10:33:03;;;;;;;12.90;2.33;;;;;;;11.29;91.70;99956.41;5051348;28;20061;-46
2022/11/16 10:35:44;;;;;;;8.25;2.40;;;;;;;11.34;90.59;99960.44;5054479;28;20016;-46
2022/11/16 10:38:12;;;;;;;12.60;2.63;;;;;;;11.36;89.64;99963.78;5051757;28;20021;-46
2022/11/16 10:40:38;;;;;;;9.82;2.30;;;;;;;11.42;90.20;99964.09;5053250;28;20026;-46
2022/11/16 10:43:14;;;;;;;11.13;2.10;;;;;;;11.45;88.54;99965.59;5051449;28;20112;-46
2022/11/16 10:45:56;;;;;;;5.68;2.28;;;;;;;11.50;89.95;99960.69;5052416;28;20056;-45
2022/11/16 10:49:03;;;;;;;10.20;2.28;;;;;;;11.59;88.92;99956.31;5049178;28;20036;-48
2022/11/16 10:51:28;;;;;;;11.13;2.10;;;;;;;11.63;88.29;99955.88;5045985;28;20506;-46
2022/11/16 10:53:54;;;;;;;9.05;2.05;;;;;;;11.68;86.37;99952.78;5047720;28;20021;-47
2022/11/16 10:56:28;;;;;;;5.10;1.80;;;;;;;11.74;85.74;99952.19;5051528;28;20491;-46
2022/11/16 10:59:02;;;;;;;7.22;1.90;;;;;;;11.69;85.41;99949.16;5054192;28;20405;-46
2022/11/16 11:01:39;;;;;;;9.43;2.28;;;;;;;11.66;87.23;99968.06;5045867;28;20087;-48
2022/11/16 11:04:24;;;;;;;11.88;2.33;;;;;;;11.66;86.10;99966.22;5053604;28;20025;-46
2022/11/16 11:06:55;;;;;;;10.32;2.25;;;;;;;11.60;85.45;99964.13;5047639;28;20470;-46
2022/11/16 11:09:22;;;;;;;6.53;1.85;;;;;;;11.69;87.00;99949.16;5049645;28;20037;-46
2022/11/16 11:15:22;;;;;;;8.10;2.33;;;;;;;11.76;86.24;99946.72;5051705;28;20098;-47
2022/11/16 11:17:49;;;;;;;10.23;2.10;;;;;;;11.71;84.51;99951.63;5043302;28;20156;-46
2022/11/16 11:20:14;;;;;;;9.90;2.15;;;;;;;11.64;83.98;99951.38;5036855;28;20041;-47
2022/11/16 11:23:02;;;;;;;8.40;1.88;;;;;;;11.63;85.18;99960.34;5042897;28;20156;-47
2022/11/16 11:25:31;;;;;;;8.82;2.10;;;;;;;11.57;83.51;99956.44;5048625;28;20017;-46
2022/11/16 11:28:25;;;;;;;10.02;2.38;;;;;;;11.58;85.24;99944.84;5035417;28;20494;-46
2022/11/16 11:31:03;;;;;;;10.95;2.13;;;;;;;11.52;84.09;99947.25;5042770;28;20048;-47
2022/11/16 11:33:38;;;;;;;6.90;1.90;;;;;;;11.44;83.87;99945.31;5052224;28;20441;-47
2022/11/16 11:36:05;;;;;;;8.25;2.20;;;;;;;11.38;84.05;99932.59;5041727;28;20048;-47
2022/11/16 11:38:31;;;;;;;10.77;1.90;;;;;;;11.37;84.11;99930.91;5048883;28;20132;-47
2022/11/16 11:40:59;;;;;;;6.90;2.13;;;;;;;11.38;84.28;99937.94;5050498;28;20056;-48
2022/11/16 11:43:26;;;;;;;5.97;2.17;;;;;;;11.37;85.10;99931.75;5037469;28;20382;-47
2022/11/16 11:46:04;;;;;;;6.97;2.00;;;;;;;11.36;84.76;99929.22;5031555;28;20084;-48
2022/11/16 11:48:47;;;;;;;11.27;2.08;;;;;;;11.34;84.76;99924.09;5036493;28;20071;-48
2022/11/16 11:51:35;;;;;;;7.63;1.95;;;;;;;11.33;84.78;99922.41;5032875;28;20033;-46
2022/11/16 11:54:03;;;;;;;6.40;1.80;;;;;;;11.29;85.39;99915.69;5044077;28;20025;-46
2022/11/16 11:56:30;;;;;;;7.20;2.63;;;;;;;11.36;84.58;99914.13;5038576;28;20034;-47
2022/11/16 11:58:56;;;;;;;8.65;2.10;;;;;;;11.40;84.58;99899.56;5044561;28;20049;-46
2022/11/16 12:01:43;;;;;;;7.75;2.08;;;;;;;11.47;84.82;99900.66;5043076;28;20045;-46
2022/11/16 12:04:35;;;;;;;10.07;2.13;;;;;;;11.53;85.14;99901.06;5034680;28;20026;-46
2022/11/16 12:07:31;;;;;;;11.43;2.58;;;;;;;11.57;84.27;99900.59;5032615;28;20041;-47
2022/11/16 12:10:03;;;;;;;6.50;1.90;;;;;;;11.55;83.20;99899.09;5031006;28;20447;-47
2022/11/16 12:12:41;;;;;;;9.65;1.85;;;;;;;11.53;82.60;99899.22;5029982;28;20038;-46
2022/11/16 12:15:29;;;;;;;8.85;1.90;;;;;;;11.55;83.82;99889.28;5031402;28;20029;-46
2022/11/16 12:18:25;;;;;;;7.97;2.20;;;;;;;11.58;82.99;99886.31;5030014;28;20049;-47
2022/11/16 12:21:12;;;;;;;10.27;2.53;;;;;;;11.56;83.46;99880.31;5033042;28;20029;-47
2022/11/16 12:23:43;;;;;;;6.75;1.70;;;;;;;11.58;82.09;99882.84;5034274;28;20585;-47